< < Back
Terminal Aerodrome Forecast


Current Version              Previous Versions:   1  2  3  4  5  6  7  8  9  

Terminal Aerodrome Forecast

413
FTUS42 KFFC 280730 AAA
TAFATL
TAF AMD
KATL 280730Z 2808/2912 31009KT P6SM FEW045
     FM281400 32010KT P6SM FEW250
     FM290300 34005KT P6SM SKC=



Latest METAR

613
SAUS70 KWBC 281400 RRD
MTRATL
METAR KATL 281352Z 33014G19KT 10SM FEW030 04/M06 A3013 RMK AO2 SLP209
T00391056


USA.gov is the U.S. government's official web portal to all federal, state and local government web resources and services.